Welcome to our new website - Welkom op onze vernieuwde website - Bienvenue sur notre nouveau site web - Willkommen auf unserer neuen Website
Check our progress frequently. Prüfen Sie unsere Fortschritte regelmäßig. Consultez notre progression fréquemment. Komt u straks nog eens terug

Torrelavega more information Torrelavega


Radar lluvias  rain snow radar


Visita nuestra red de sitios de meteo:

Documentation for the template used

Website of another weatherstation



Sin Advertencias climatologicas en Cantabria.En este momento tenemos Nivel Verde.    No hay Alarmas

Informes METAR proximidad

   
LEXJ - Santander, Parayas, Spain
Distancia hasta la estación: ESE 6 km
Actualización: 21-09-2021 06:00
Parcialmente Nublado  
Parcialmente Nublado  
   Viento: SW 13 km/h
Viento: SW 13 km/h
Temperatura: 14°C
Punto de rocío: 12°C
Humedad: 88%
Baromètro: 1026 hPa
Nublado: Parcialmente Nublado
Visibilidad: More than 10 km
detalles de la nube: Parcialmente Nublado 4000 ft
LEXJ 210400Z 22007KT 9999 SCT040 14/12 Q1026
LEBB - Bilbao,Sondica, Spain
Distancia hasta la estación: ESE 80 km
Actualización: 21-09-2021 06:15
Niebla, Parcialmente nublado  
Niebla, Parcialmente nublado  
   Viento: varía 3.7 km/h
Viento: varía 3.7 km/h
Temperatura: 12°C
Punto de rocío: 12°C
Humedad: 100%
Baromètro: 1026 hPa
Nublado: Parcialmente nublado
Visibilidad: 1 km
detalles de la nube: Nubes dispersas 600 ft,
Parcialmente Nublado 4000 ft,
Parcialmente nublado 6000 ft
LEBB 210415Z VRB02KT 0800 R30/0700N R12/1600N FG FEW006 SCT040 BKN060 12/12 Q1026 TEMPO 1500 BCFG
LEBL - Barcelona Airpor, Spain
Distancia hasta la estación: ESE 726 km
Actualización: 21-09-2021 06:00
Nubes dispersas  
Nubes dispersas  
   Viento: NNW 22.2 km/h
Viento: NNW 22.2 km/h
Temperatura: 17°C
Punto de rocío: 12°C
Humedad: 73%
Baromètro: 1020 hPa
Nublado: Nubes dispersas
Visibilidad: More than 10 km
detalles de la nube: Nubes dispersas 2000 ft
LEBL 210400Z 33012KT 9999 FEW020 17/12 Q1020 NOSIG
LEMD - Madrid,Barajas, Spain
Distancia hasta la estación: S 325 km
Actualización: 21-09-2021 06:00
Despejado  
Despejado  
   Viento: NNE 5.6 km/h
Viento: NNE 5.6 km/h
Temperatura: 11°C
Punto de rocío: 5°C
Humedad: 67%
Baromètro: 1023 hPa
Visibilidad: More than 10 km
detalles de la nube: Despejado
LEMD 210400Z 03003KT CAVOK 11/05 Q1023 NOSIG
LPPT - Lisbon,Portela, Portugal
Distancia hasta la estación: SW 663 km
Actualización: 21-09-2021 06:00
Despejado  
Despejado  
   Viento: NNE 25.9 km/h
Viento: NNE 25.9 km/h
Temperatura: 20°C
Punto de rocío: 6°C
Humedad: 40%
Baromètro: 1018 hPa
Visibilidad: More than 10 km
detalles de la nube: Despejado
LPPT 210400Z 03014KT 010V070 CAVOK 20/06 Q1018
LECO - La Coruna,Alvedr, Spain
Distancia hasta la estación: W 349 km
Actualización: 21-09-2021 06:00
Nubes dispersas  
Nubes dispersas  
   Viento: varía 3.7 km/h
Viento: varía 3.7 km/h
Temperatura: 13°C
Punto de rocío: 13°C
Humedad: 100%
Baromètro: 1027 hPa
Nublado: Nubes dispersas
Visibilidad: More than 10 km
detalles de la nube: Nubes dispersas 1000 ft
LECO 210400Z VRB02KT 9999 FEW010 13/13 Q1027 NOSIG
LEST - Santiago,Labacol, Spain
Distancia hasta la estación: W 358 km
Actualización: 21-09-2021 06:00
Nubes dispersas  
Nubes dispersas  
   Viento: NE 7.4 km/h
Viento: NE 7.4 km/h
Temperatura: 12°C
Punto de rocío: 10°C
Humedad: 88%
Baromètro: 1027 hPa
Nublado: Nubes dispersas
Visibilidad: More than 10 km
detalles de la nube: Nubes dispersas 3000 ft
LEST 210400Z 04004KT 340V090 9999 FEW030 12/10 Q1027 NOSIG
EBBR - Brussels International Airport, Belgium
Distancia hasta la estación: W 1339 km
Actualización: 21-09-2021 05:50
Parcialmente nublado  
Parcialmente nublado  
   Viento: N 3.7 km/h
Viento: N 3.7 km/h
Temperatura: 8°C
Punto de rocío: 6°C
Humedad: 87%
Baromètro: 1028 hPa
Nublado: Parcialmente nublado
Visibilidad: More than 10 km
detalles de la nube: Parcialmente nublado 4800 ft
EBBR 210350Z 36002KT 9999 BKN048 08/06 Q1028 NOSIG
 

Guión original por  Saratoga-weather.org Adaptado para la plantilla por  Weerstation Leuven

Usted encontrará nuestra información del tiempo también en:

UK Metoffice

European Weather Network

WeatherCloud

Iberian Peninsula Weather Network

AWEKAS

Citizen Weather Observer Program (CWOP)

HAMweather, WeatherForYou, PWS Weather

Anything Weather

Equipo utilizado:

Weather-program
Weather Display

Weather-server
My Computer

Proveedor
My provider

Weather Display

My Computer

My provider